• LFSB

    METAR de LFSB (émis le 2022/12/09 18:00 UTC):
    LFSB 091800Z AUTO VRB02KT 3800 -FZRA BR OVC004 M00/M01 Q1003 TEMPO 1200

    TAF de LFSB (émis le 2022/12/09 18:40 UTC):
    AMD LFSB 091737Z 0918/1018 33004KT 3000 BR BKN008 OVC020 TEMPO 0918/1012 1200 OVC002 PROB30 TEMPO 0918/0920 -FZDZ PROB40 TEMPO 1003/1012 0800 -SHSN BECMG 1012/1014 9999 FEW015 BKN030
  • LFSX

    METAR de LFSX (émis le 2022/12/09 18:00 UTC):
    LFSX 091800Z AUTO 30003KT 6000 BKN018 OVC034 M00/M01 Q1003

    TAF de LFSX (émis le 2022/12/09 14:42 UTC):
    LFSX 091400Z 0914/1015 CNL
  • LFSD

    METAR de LFSD (émis le 2022/12/09 18:00 UTC):
    LFSD 091800Z AUTO 02008KT 9999 OVC020 02/M02 Q1003

    TAF de LFSD (émis le 2015/06/01 00:11 UTC):
    LFSD 010600Z 0100/0124 CNL
  • LFGJ

    METAR de LFGJ (émis le 2022/12/09 18:00 UTC):
    LFGJ 091800Z AUTO 02007KT 8000 OVC010 02/M00 Q1003 BECMG OVC020

    TAF COURT de LFGJ
    (émis le 2022/12/09 18:12 UTC):
    TAF TAF LFGJ 091800Z 0918/0924 CNL
  • LFJL

    METAR de LFJL (émis le 2022/12/09 18:00 UTC):
    LFJL 091800Z AUTO VRB02KT 9999 OVC039 M00/M01 Q1004 TEMPO 0200 FZFG VV///

    TAF de LFJL (émis le 2022/12/09 18:22 UTC):
    LFJL 091700Z 0918/1018 01005KT 7000 NSC TEMPO 0918/1011 3000 BR PROB40 TEMPO 0918/1010 0200 FZFG VV///
  • LFST

    METAR de LFST (émis le 2022/12/09 18:00 UTC):
    LFST 091800Z AUTO 32004KT 9000 SCT013 BKN019 OVC024 01/M00 Q1004 NOSIG

    TAF de LFST (émis le 2022/12/09 18:22 UTC):
    LFST 091700Z 0918/1018 34005KT 7000 FEW015 BKN040 TEMPO 0920/1010 3000 BR BKN008 PROB40 TEMPO 0922/1008 OVC003 PROB40 TEMPO 1008/1012 1200 -SN OVC008